Time;durP1;ratioP1;P1;durP2;ratioP2;P2;SDS_P1;SDS_P2;PMS_P1;PMS_P2;Temp;Humidity;BMP_temperature;BMP_pressure;BME280_temperature;BME280_humidity;BME280_pressure;Samples;Min_cycle;Max_cycle;Signal;HPM_P1;HPM_P2
2024/01/09 00:01:44;;;;;;;3.40;3.30;;;15.90;69.00;;;;;;5037332;28;44053;-72
2024/01/09 00:04:12;;;;;;;3.47;3.37;;;15.90;69.00;;;;;;5035626;28;43976;-73
2024/01/09 00:06:40;;;;;;;3.20;3.10;;;15.90;69.00;;;;;;5039089;28;43988;-73
2024/01/09 00:09:08;;;;;;;3.70;3.60;;;15.80;69.00;;;;;;5043447;28;43325;-72
2024/01/09 00:11:38;;;;;;;3.40;3.30;;;15.80;69.00;;;;;;5043098;28;43682;-72
2024/01/09 00:14:06;;;;;;;3.37;3.27;;;15.80;69.00;;;;;;5038436;28;43372;-72
2024/01/09 00:16:34;;;;;;;3.37;3.27;;;15.80;70.10;;;;;;5040701;28;43543;-72
2024/01/09 00:19:02;;;;;;;3.40;3.30;;;15.80;69.10;;;;;;5035704;28;43705;-72
2024/01/09 00:21:30;;;;;;;3.20;3.10;;;15.80;69.10;;;;;;5041767;28;43865;-72
2024/01/09 00:24:00;;;;;;;3.20;3.10;;;15.80;69.20;;;;;;5044375;28;43459;-72
2024/01/09 00:26:29;;;;;;;3.50;3.40;;;15.80;69.10;;;;;;5035978;28;43464;-73
2024/01/09 00:28:58;;;;;;;3.60;3.50;;;15.80;69.30;;;;;;5034934;28;43408;-73
2024/01/09 00:31:26;;;;;;;3.97;3.87;;;15.80;69.30;;;;;;5046930;28;43928;-72
2024/01/09 00:33:54;;;;;;;3.43;3.33;;;15.70;69.60;;;;;;5049897;28;44132;-72
2024/01/09 00:36:23;;;;;;;3.23;3.13;;;15.80;69.70;;;;;;5039772;28;43503;-72
2024/01/09 00:38:51;;;;;;;3.30;3.20;;;15.90;69.50;;;;;;5050869;28;43458;-73
2024/01/09 00:41:19;;;;;;;3.30;3.20;;;16.00;68.90;;;;;;5036778;28;43604;-72
2024/01/09 00:43:47;;;;;;;3.30;3.20;;;15.90;68.60;;;;;;5046534;28;44082;-72
2024/01/09 00:46:17;;;;;;;3.30;3.20;;;16.00;68.60;;;;;;5036550;28;43802;-72
2024/01/09 00:48:45;;;;;;;3.83;3.73;;;15.90;68.70;;;;;;5063751;28;43491;-71
2024/01/09 00:51:13;;;;;;;3.33;3.23;;;15.90;68.80;;;;;;5053460;28;45897;-71
2024/01/09 00:53:41;;;;;;;3.33;3.23;;;15.90;68.80;;;;;;5056606;28;43423;-71
2024/01/09 00:56:09;;;;;;;3.50;3.40;;;15.90;68.90;;;;;;5062437;28;43529;-72
2024/01/09 00:58:37;;;;;;;3.40;3.30;;;15.80;68.80;;;;;;5058307;28;43477;-71
2024/01/09 01:01:05;;;;;;;3.40;3.30;;;15.80;68.90;;;;;;5055820;28;43832;-71
2024/01/09 01:03:35;;;;;;;3.73;3.63;;;15.80;69.00;;;;;;5061016;28;44861;-71
2024/01/09 01:06:03;;;;;;;3.67;3.57;;;15.80;69.00;;;;;;5065150;28;43498;-71
2024/01/09 01:08:31;;;;;;;3.70;3.60;;;15.80;69.20;;;;;;5059233;28;43440;-71
2024/01/09 01:10:59;;;;;;;3.30;3.20;;;15.80;69.80;;;;;;5057749;28;46438;-71
2024/01/09 01:13:27;;;;;;;3.30;3.10;;;15.80;69.10;;;;;;5052817;28;44694;-72
2024/01/09 01:15:55;;;;;;;3.70;3.60;;;15.80;69.10;;;;;;5062227;28;43722;-71
2024/01/09 01:18:23;;;;;;;3.60;3.50;;;15.70;69.10;;;;;;5053732;28;43409;-71
2024/01/09 01:20:53;;;;;;;3.50;3.40;;;15.70;69.10;;;;;;5063582;28;46547;-71
2024/01/09 01:23:21;;;;;;;3.70;3.60;;;15.70;69.10;;;;;;5054265;28;43404;-71
2024/01/09 01:25:50;;;;;;;3.50;3.40;;;15.70;69.30;;;;;;5049589;28;43500;-71
2024/01/09 01:28:18;;;;;;;3.20;3.10;;;15.70;69.20;;;;;;5065831;28;43441;-71
2024/01/09 01:30:45;;;;;;;3.50;3.40;;;15.70;69.10;;;;;;5056278;28;43609;-71
2024/01/09 01:33:14;;;;;;;3.73;3.63;;;15.70;69.10;;;;;;5062513;28;43364;-72
2024/01/09 01:35:42;;;;;;;3.40;3.30;;;15.70;69.10;;;;;;5050351;28;43384;-71
2024/01/09 01:38:11;;;;;;;3.63;3.53;;;15.70;69.10;;;;;;5061964;28;43471;-71
2024/01/09 01:40:39;;;;;;;3.20;3.10;;;15.70;69.20;;;;;;5054956;28;44030;-71
2024/01/09 01:43:07;;;;;;;3.70;3.60;;;15.70;69.60;;;;;;5066091;28;44128;-72
2024/01/09 01:45:35;;;;;;;3.63;3.53;;;15.80;69.60;;;;;;5063066;28;43507;-72
2024/01/09 01:48:04;;;;;;;3.60;3.50;;;15.90;69.20;;;;;;5050173;28;43463;-71
2024/01/09 01:50:33;;;;;;;3.20;3.10;;;16.00;68.60;;;;;;5054638;28;43604;-72
2024/01/09 01:53:01;;;;;;;3.70;3.60;;;16.00;68.30;;;;;;5051444;28;43368;-72
2024/01/09 01:55:31;;;;;;;3.57;3.47;;;16.00;68.30;;;;;;5060477;28;43333;-71
2024/01/09 01:57:59;;;;;;;3.60;3.50;;;15.90;68.40;;;;;;5059996;28;43427;-71
2024/01/09 02:00:27;;;;;;;3.80;3.70;;;15.90;68.70;;;;;;5060886;28;43605;-71
2024/01/09 02:02:55;;;;;;;3.50;3.30;;;15.90;68.50;;;;;;5054803;28;43395;-71
2024/01/09 02:05:24;;;;;;;3.80;3.70;;;15.80;68.40;;;;;;5058554;28;43451;-72
2024/01/09 02:07:54;;;;;;;3.60;3.50;;;15.80;68.60;;;;;;5056929;28;43424;-72
2024/01/09 02:10:23;;;;;;;3.63;3.53;;;15.80;68.70;;;;;;5050950;28;46064;-71
2024/01/09 02:12:52;;;;;;;3.47;3.37;;;15.80;68.80;;;;;;5062817;28;44590;-71
2024/01/09 02:15:20;;;;;;;3.70;3.60;;;15.70;68.80;;;;;;5054962;28;43352;-71
2024/01/09 02:17:48;;;;;;;3.47;3.37;;;15.70;68.90;;;;;;5054854;28;44074;-72
2024/01/09 02:20:16;;;;;;;3.40;3.30;;;15.70;68.90;;;;;;5060130;28;43704;-72
2024/01/09 02:22:45;;;;;;;3.47;3.37;;;15.70;68.80;;;;;;5060460;28;43395;-71
2024/01/09 02:25:13;;;;;;;3.50;3.40;;;15.70;68.90;;;;;;5054222;28;43411;-72
2024/01/09 02:27:45;;;;;;;3.67;3.57;;;15.70;69.00;;;;;;5056723;28;43385;-72
2024/01/09 02:30:14;;;;;;;3.50;3.40;;;15.70;69.00;;;;;;5052211;28;43707;-71
2024/01/09 02:32:42;;;;;;;3.53;3.43;;;15.70;69.10;;;;;;5056913;28;45224;-71
2024/01/09 02:35:10;;;;;;;3.50;3.40;;;15.70;69.30;;;;;;5054972;28;43396;-71
2024/01/09 02:37:38;;;;;;;3.73;3.63;;;15.70;69.50;;;;;;5060135;28;43423;-71
2024/01/09 02:40:08;;;;;;;3.53;3.43;;;15.80;69.00;;;;;;5056556;28;43682;-72
2024/01/09 02:42:37;;;;;;;3.90;3.80;;;15.80;68.50;;;;;;5057809;28;43363;-71
2024/01/09 02:45:05;;;;;;;3.67;3.57;;;15.90;68.50;;;;;;5056311;28;44058;-72
2024/01/09 02:47:34;;;;;;;3.83;3.73;;;15.80;68.40;;;;;;5066628;28;43391;-69
2024/01/09 02:50:03;;;;;;;3.90;3.80;;;15.80;68.50;;;;;;5062978;28;43828;-69
2024/01/09 02:52:31;;;;;;;4.00;3.80;;;15.80;68.70;;;;;;5054019;28;43403;-69
2024/01/09 02:54:59;;;;;;;3.60;3.50;;;15.80;68.70;;;;;;5059922;28;43404;-71
2024/01/09 02:57:27;;;;;;;3.90;3.80;;;15.80;68.70;;;;;;5056329;28;43399;-70
2024/01/09 02:59:55;;;;;;;3.70;3.60;;;15.70;68.70;;;;;;5059206;28;43600;-70
2024/01/09 03:02:26;;;;;;;3.40;3.30;;;15.70;68.70;;;;;;5049041;28;43416;-71
2024/01/09 03:04:56;;;;;;;3.50;3.40;;;15.70;68.80;;;;;;5051972;28;43495;-72
2024/01/09 03:07:24;;;;;;;3.67;3.57;;;15.70;68.80;;;;;;5054388;28;43485;-71
2024/01/09 03:09:52;;;;;;;3.57;3.47;;;15.70;69.00;;;;;;5055643;28;45888;-71
2024/01/09 03:12:20;;;;;;;3.93;3.83;;;15.70;69.00;;;;;;5059687;28;44936;-70
2024/01/09 03:14:48;;;;;;;3.50;3.40;;;15.70;69.00;;;;;;5067675;28;43423;-70
2024/01/09 03:17:16;;;;;;;3.03;2.93;;;15.70;68.90;;;;;;5053791;28;43500;-70
2024/01/09 03:19:44;;;;;;;3.97;3.87;;;15.70;69.00;;;;;;5059309;28;45007;-70
2024/01/09 03:22:13;;;;;;;3.20;3.10;;;15.70;69.00;;;;;;5058224;28;43352;-69
2024/01/09 03:24:42;;;;;;;3.40;3.30;;;15.60;68.90;;;;;;5064636;28;43400;-70
2024/01/09 03:27:10;;;;;;;3.63;3.53;;;15.60;69.10;;;;;;5058325;28;43431;-70
2024/01/09 03:29:38;;;;;;;3.73;3.63;;;15.60;69.40;;;;;;5059022;28;43619;-72
2024/01/09 03:32:06;;;;;;;3.60;3.50;;;15.80;69.30;;;;;;5061607;28;44743;-71
2024/01/09 03:34:35;;;;;;;3.70;3.60;;;15.80;68.70;;;;;;5062979;28;43480;-70
2024/01/09 03:37:03;;;;;;;3.60;3.50;;;15.80;68.30;;;;;;5062321;28;43513;-70
2024/01/09 03:39:32;;;;;;;3.27;3.17;;;15.80;68.20;;;;;;5067952;28;44132;-70
2024/01/09 03:42:01;;;;;;;4.10;3.90;;;15.80;68.30;;;;;;5054984;28;43449;-71
2024/01/09 03:44:31;;;;;;;3.87;3.77;;;15.80;68.40;;;;;;5055861;28;43460;-71
2024/01/09 03:46:59;;;;;;;3.87;3.77;;;15.70;68.70;;;;;;5070387;28;43356;-70
2024/01/09 03:49:27;;;;;;;3.80;3.70;;;15.70;68.50;;;;;;5059423;28;45494;-71
2024/01/09 03:51:57;;;;;;;3.70;3.50;;;15.70;68.50;;;;;;5060772;28;43328;-71
2024/01/09 03:54:25;;;;;;;3.53;3.43;;;15.70;68.60;;;;;;5054705;28;43472;-71
2024/01/09 03:56:54;;;;;;;3.30;3.20;;;15.70;68.70;;;;;;5051477;28;43475;-71
2024/01/09 03:59:23;;;;;;;3.70;3.60;;;15.70;68.80;;;;;;5049069;28;46104;-70
2024/01/09 04:01:51;;;;;;;3.70;3.60;;;15.60;68.80;;;;;;5058483;28;43713;-71
2024/01/09 04:04:19;;;;;;;3.57;3.47;;;15.60;69.10;;;;;;5069945;28;43403;-70
2024/01/09 04:06:48;;;;;;;3.57;3.47;;;15.70;69.20;;;;;;5057492;28;43453;-70
2024/01/09 04:09:17;;;;;;;3.90;3.80;;;15.70;68.60;;;;;;5051037;28;44904;-70
2024/01/09 04:11:48;;;;;;;3.90;3.80;;;15.70;68.40;;;;;;5059523;28;43403;-71
2024/01/09 04:14:18;;;;;;;3.50;3.40;;;15.70;68.40;;;;;;5053223;28;43482;-70
2024/01/09 04:16:46;;;;;;;3.60;3.50;;;15.70;68.60;;;;;;5060914;28;43555;-69
2024/01/09 04:19:14;;;;;;;3.70;3.60;;;15.70;68.60;;;;;;5060374;28;45648;-68
2024/01/09 04:21:42;;;;;;;3.70;3.60;;;15.70;68.90;;;;;;5076946;28;43486;-69
2024/01/09 04:24:10;;;;;;;3.80;3.70;;;15.70;68.70;;;;;;5072705;27;43715;-69
2024/01/09 04:26:38;;;;;;;3.73;3.63;;;15.70;68.70;;;;;;5066503;27;43241;-69
2024/01/09 04:29:06;;;;;;;3.73;3.63;;;15.70;68.70;;;;;;5071215;27;43920;-68
2024/01/09 04:31:36;;;;;;;3.50;3.40;;;15.60;68.70;;;;;;5060336;27;43510;-68
2024/01/09 04:34:04;;;;;;;3.40;3.30;;;15.60;68.70;;;;;;5076613;27;43378;-69
2024/01/09 04:36:32;;;;;;;3.67;3.57;;;15.60;68.70;;;;;;5062559;28;43389;-69
2024/01/09 04:39:01;;;;;;;3.40;3.30;;;15.60;68.80;;;;;;5067608;27;44048;-69
2024/01/09 04:41:29;;;;;;;3.70;3.60;;;15.60;69.10;;;;;;5060506;28;43403;-69
2024/01/09 04:43:57;;;;;;;3.63;3.53;;;15.70;68.70;;;;;;5076931;28;43754;-69
2024/01/09 04:46:28;;;;;;;3.83;3.73;;;15.80;68.30;;;;;;5063391;27;43414;-69
2024/01/09 04:48:57;;;;;;;3.60;3.50;;;15.80;68.20;;;;;;5065709;28;43596;-69
2024/01/09 04:51:25;;;;;;;3.53;3.43;;;15.80;68.30;;;;;;5057352;28;43424;-69
2024/01/09 04:53:53;;;;;;;3.50;3.40;;;15.70;68.30;;;;;;5075659;28;43401;-69
2024/01/09 04:56:21;;;;;;;3.77;3.67;;;15.70;68.40;;;;;;5068296;28;43446;-70
2024/01/09 04:58:53;;;;;;;3.63;3.50;;;15.70;68.50;;;;;;5071098;28;45795;-69
2024/01/09 05:01:21;;;;;;;3.53;3.43;;;15.70;68.50;;;;;;5059441;28;44508;-69
2024/01/09 05:03:50;;;;;;;3.50;3.40;;;15.70;68.50;;;;;;5062835;28;43512;-69
2024/01/09 05:06:21;;;;;;;3.47;3.37;;;15.70;68.60;;;;;;5055954;28;43365;-69
2024/01/09 05:08:49;;;;;;;3.40;3.30;;;15.70;68.60;;;;;;5063945;27;43604;-69
2024/01/09 05:11:20;;;;;;;3.50;3.40;;;15.60;68.50;;;;;;5067962;27;44680;-69
2024/01/09 05:13:48;;;;;;;3.63;3.53;;;15.60;68.50;;;;;;5062414;28;43396;-69
2024/01/09 05:16:16;;;;;;;3.47;3.37;;;15.60;68.50;;;;;;5066699;28;43419;-69
2024/01/09 05:18:44;;;;;;;3.20;3.10;;;15.60;68.50;;;;;;5065665;28;43598;-69
2024/01/09 05:21:13;;;;;;;3.40;3.30;;;15.60;68.50;;;;;;5068994;27;43417;-69
2024/01/09 05:23:42;;;;;;;3.70;3.60;;;15.60;68.60;;;;;;5060980;27;43522;-70
2024/01/09 05:26:10;;;;;;;3.37;3.30;;;15.60;68.50;;;;;;5065019;27;43428;-69
2024/01/09 05:28:38;;;;;;;3.50;3.40;;;15.60;68.50;;;;;;5054225;28;43790;-70
2024/01/09 05:31:06;;;;;;;3.67;3.57;;;15.60;68.50;;;;;;5053467;28;43551;-71
2024/01/09 05:33:35;;;;;;;3.70;3.60;;;15.60;68.80;;;;;;5059029;28;44115;-71
2024/01/09 05:36:05;;;;;;;3.60;3.50;;;15.70;69.00;;;;;;5057537;28;43972;-71
2024/01/09 05:38:33;;;;;;;3.40;3.30;;;15.80;68.40;;;;;;5061880;28;43621;-71
2024/01/09 05:41:03;;;;;;;3.87;3.77;;;15.80;68.00;;;;;;5059403;28;43441;-71
2024/01/09 05:43:31;;;;;;;3.40;3.30;;;15.80;67.70;;;;;;5054370;28;43612;-70
2024/01/09 05:45:59;;;;;;;3.70;3.60;;;15.80;67.80;;;;;;5053923;28;44056;-71
2024/01/09 05:48:27;;;;;;;3.13;3.03;;;15.80;67.90;;;;;;5051257;28;46186;-71
2024/01/09 05:50:55;;;;;;;3.60;3.50;;;15.80;68.00;;;;;;5064052;28;43551;-71
2024/01/09 05:53:23;;;;;;;3.60;3.40;;;15.80;68.10;;;;;;5051398;28;43459;-70
2024/01/09 05:55:51;;;;;;;3.20;3.10;;;15.80;68.10;;;;;;5059974;28;43444;-70
2024/01/09 05:58:21;;;;;;;3.50;3.40;;;15.70;68.20;;;;;;5052525;28;45291;-72
2024/01/09 06:00:49;;;;;;;3.33;3.23;;;15.70;68.20;;;;;;5051705;28;43475;-71
2024/01/09 06:03:17;;;;;;;3.87;3.77;;;15.70;68.30;;;;;;5051293;28;43345;-71
2024/01/09 06:05:45;;;;;;;3.17;3.07;;;15.70;68.30;;;;;;5049079;28;43434;-70
2024/01/09 06:08:13;;;;;;;3.47;3.37;;;15.60;68.30;;;;;;5048285;28;45270;-70
2024/01/09 06:10:41;;;;;;;3.57;3.47;;;15.60;68.30;;;;;;5057724;28;43387;-70
2024/01/09 06:13:09;;;;;;;3.30;3.20;;;15.60;68.30;;;;;;5064323;28;43523;-70
2024/01/09 06:15:39;;;;;;;3.20;3.10;;;15.60;68.30;;;;;;5057575;28;43471;-70
2024/01/09 06:18:07;;;;;;;3.43;3.33;;;15.60;68.30;;;;;;5053714;28;46023;-70
2024/01/09 06:20:36;;;;;;;3.63;3.53;;;15.60;68.40;;;;;;5057065;28;43462;-70
2024/01/09 06:23:05;;;;;;;3.87;3.77;;;15.60;68.50;;;;;;5057300;28;43396;-70
2024/01/09 06:25:33;;;;;;;3.50;3.40;;;15.60;68.40;;;;;;5060837;28;43450;-72
2024/01/09 06:28:01;;;;;;;3.47;3.37;;;15.60;68.70;;;;;;5058509;28;44053;-70
2024/01/09 06:30:30;;;;;;;3.33;3.23;;;15.70;68.70;;;;;;5062771;28;43408;-70
2024/01/09 06:32:59;;;;;;;3.40;3.30;;;15.80;68.20;;;;;;5054769;28;43500;-70
2024/01/09 06:35:27;;;;;;;3.50;3.40;;;15.80;67.80;;;;;;5052793;28;43455;-72
2024/01/09 06:37:55;;;;;;;3.33;3.23;;;15.80;67.80;;;;;;5041297;28;45924;-73
2024/01/09 06:40:24;;;;;;;3.30;3.20;;;15.80;67.80;;;;;;5036682;28;43866;-73
2024/01/09 06:42:52;;;;;;;3.20;3.10;;;15.80;68.00;;;;;;5042191;28;43384;-73
2024/01/09 06:45:20;;;;;;;3.27;3.17;;;15.70;68.00;;;;;;5039497;28;43570;-71
2024/01/09 06:47:48;;;;;;;3.67;3.57;;;15.70;67.90;;;;;;5037830;28;45671;-72
2024/01/09 06:50:18;;;;;;;3.43;3.33;;;15.70;68.10;;;;;;5028253;28;44984;-71
2024/01/09 06:53:00;;;;;;;3.20;3.10;;;15.70;68.10;;;;;;5047888;28;43488;-72
2024/01/09 06:55:29;;;;;;;3.20;3.10;;;15.70;68.30;;;;;;5037243;28;43729;-72
2024/01/09 06:57:57;;;;;;;3.30;3.10;;;15.60;68.10;;;;;;5046462;28;43916;-72
2024/01/09 07:00:25;;;;;;;3.33;3.23;;;15.60;68.20;;;;;;5034584;28;44887;-72
2024/01/09 07:02:53;;;;;;;2.87;2.87;;;15.60;68.30;;;;;;5043421;28;43430;-72
2024/01/09 07:05:22;;;;;;;3.27;3.17;;;15.60;68.30;;;;;;5048522;28;43493;-72
2024/01/09 07:07:51;;;;;;;3.10;3.10;;;15.60;68.30;;;;;;5051812;28;45845;-72
2024/01/09 07:10:19;;;;;;;3.47;3.37;;;15.60;68.30;;;;;;5040573;28;44732;-72
2024/01/09 07:12:47;;;;;;;3.10;3.00;;;15.60;68.30;;;;;;5039794;28;44047;-73
2024/01/09 07:15:15;;;;;;;3.30;3.20;;;15.60;68.40;;;;;;5052940;28;43553;-72
2024/01/09 07:17:45;;;;;;;3.40;3.30;;;15.60;68.50;;;;;;5039761;28;43882;-73
2024/01/09 07:20:14;;;;;;;3.37;3.27;;;15.60;68.70;;;;;;5034393;28;43523;-72
2024/01/09 07:22:44;;;;;;;3.20;3.10;;;15.60;68.70;;;;;;5050841;28;43529;-72
2024/01/09 07:25:16;;;;;;;3.00;3.00;;;15.70;68.20;;;;;;5036107;28;44231;-72
2024/01/09 07:27:44;;;;;;;3.77;3.67;;;15.70;67.80;;;;;;5062037;28;46190;-72
2024/01/09 07:30:13;;;;;;;3.30;3.20;;;15.70;67.80;;;;;;5037435;28;43469;-72
2024/01/09 07:32:41;;;;;;;3.27;3.17;;;15.70;67.80;;;;;;5044445;28;43436;-72
2024/01/09 07:35:10;;;;;;;3.03;2.93;;;15.70;67.90;;;;;;5043350;28;43475;-72
2024/01/09 07:37:38;;;;;;;3.17;3.07;;;15.60;68.00;;;;;;5034960;28;46006;-72
2024/01/09 07:40:09;;;;;;;2.87;2.80;;;15.70;68.00;;;;;;5043466;28;44931;-72
2024/01/09 07:42:37;;;;;;;2.97;2.97;;;15.60;68.00;;;;;;5039737;28;43470;-72
2024/01/09 07:45:20;;;;;;;3.20;3.10;;;15.70;68.10;;;;;;5032617;28;43938;-72
2024/01/09 07:47:48;;;;;;;3.57;3.47;;;15.60;68.10;;;;;;5047792;28;44342;-69
2024/01/09 07:50:16;;;;;;;3.23;3.13;;;15.60;68.00;;;;;;5061219;28;43449;-70
2024/01/09 07:52:44;;;;;;;3.50;3.40;;;15.60;68.10;;;;;;5060061;28;43503;-70
2024/01/09 07:55:14;;;;;;;3.20;3.10;;;15.60;68.20;;;;;;5067131;27;43441;-70
2024/01/09 07:57:42;;;;;;;3.43;3.33;;;15.60;68.40;;;;;;5072995;27;43834;-71
2024/01/09 08:00:11;;;;;;;3.10;3.00;;;15.60;68.10;;;;;;5056953;28;44700;-70
2024/01/09 08:02:39;;;;;;;3.30;3.20;;;15.70;67.90;;;;;;5073564;28;43438;-70
2024/01/09 08:05:07;;;;;;;3.37;3.27;;;15.70;67.80;;;;;;5069467;27;43611;-71
2024/01/09 08:07:36;;;;;;;3.23;3.13;;;15.70;67.90;;;;;;5074362;28;43916;-70
2024/01/09 08:10:05;;;;;;;3.10;3.00;;;15.70;67.90;;;;;;5063876;28;43526;-71
2024/01/09 08:12:34;;;;;;;3.40;3.30;;;15.60;67.90;;;;;;5069287;28;43362;-69
2024/01/09 08:15:03;;;;;;;3.77;3.67;;;15.60;68.10;;;;;;5070876;27;43420;-71
2024/01/09 08:17:31;;;;;;;2.90;2.90;;;15.60;67.90;;;;;;5068388;28;43592;-70
2024/01/09 08:19:59;;;;;;;3.50;3.40;;;15.60;68.00;;;;;;5055476;28;44387;-70
2024/01/09 08:22:28;;;;;;;2.80;2.77;;;15.60;68.00;;;;;;5074269;28;43355;-70
2024/01/09 08:24:56;;;;;;;3.10;3.00;;;15.60;68.00;;;;;;5061398;28;43425;-70
2024/01/09 08:27:24;;;;;;;3.20;3.10;;;15.60;67.90;;;;;;5068844;28;43928;-70
2024/01/09 08:29:54;;;;;;;3.40;3.30;;;15.60;68.10;;;;;;5066533;27;43688;-70
2024/01/09 08:32:22;;;;;;;3.07;2.97;;;15.60;68.20;;;;;;5070384;27;43550;-70
2024/01/09 08:34:51;;;;;;;3.17;3.07;;;15.60;68.50;;;;;;5068840;27;43468;-70
2024/01/09 08:37:19;;;;;;;3.17;3.07;;;15.60;68.30;;;;;;5058343;28;43768;-71
2024/01/09 08:39:47;;;;;;;3.17;3.07;;;15.70;67.70;;;;;;5063724;27;43528;-71
2024/01/09 08:42:15;;;;;;;3.20;3.10;;;15.70;67.70;;;;;;5067191;27;43415;-70
2024/01/09 08:44:43;;;;;;;3.60;3.50;;;15.70;67.70;;;;;;5068585;27;43397;-70
2024/01/09 08:47:13;;;;;;;3.20;3.10;;;15.70;67.80;;;;;;5060547;28;46014;-71
2024/01/09 08:49:41;;;;;;;3.30;3.20;;;15.60;67.80;;;;;;5061176;28;44581;-71
2024/01/09 08:52:09;;;;;;;3.43;3.33;;;15.60;67.90;;;;;;5073602;28;43411;-71
2024/01/09 08:54:37;;;;;;;3.17;3.07;;;15.60;67.90;;;;;;5069522;27;43412;-71
2024/01/09 08:57:06;;;;;;;2.93;2.93;;;15.60;67.90;;;;;;5065922;28;43925;-71
2024/01/09 08:59:34;;;;;;;3.00;2.90;;;15.60;67.90;;;;;;5034175;28;43479;-72
2024/01/09 09:02:02;;;;;;;2.90;2.80;;;15.60;68.00;;;;;;5047099;28;43451;-71
2024/01/09 09:04:32;;;;;;;3.20;3.10;;;15.60;68.10;;;;;;5042896;28;43482;-72
2024/01/09 09:07:00;;;;;;;3.17;3.07;;;15.60;68.20;;;;;;5051800;28;43838;-72
2024/01/09 09:09:34;;;;;;;3.33;3.23;;;15.50;68.00;;;;;;5030755;28;43531;-72
2024/01/09 09:12:03;;;;;;;3.40;3.30;;;15.50;68.00;;;;;;5046367;28;43422;-72
2024/01/09 09:14:31;;;;;;;3.07;2.97;;;15.50;68.00;;;;;;5035506;28;43443;-72
2024/01/09 09:16:59;;;;;;;3.20;3.10;;;15.50;68.10;;;;;;5040629;28;45705;-72
2024/01/09 09:19:28;;;;;;;3.47;3.33;;;15.50;68.10;;;;;;5039115;28;43488;-71
2024/01/09 09:22:01;;;;;;;3.00;2.93;;;15.50;68.10;;;;;;5047421;28;43372;-72
2024/01/09 09:24:29;;;;;;;3.20;3.10;;;15.50;68.10;;;;;;5039217;28;43453;-71
2024/01/09 09:26:57;;;;;;;3.07;2.97;;;15.50;68.10;;;;;;5034193;28;45678;-71
2024/01/09 09:29:25;;;;;;;2.90;2.80;;;15.50;68.40;;;;;;5037660;28;43698;-71
2024/01/09 09:32:05;;;;;;;2.83;2.83;;;15.60;68.30;;;;;;5036106;28;43374;-71
2024/01/09 09:34:34;;;;;;;3.67;2.97;;;15.70;67.70;;;;;;5033994;28;43383;-71
2024/01/09 09:37:03;;;;;;;3.03;2.93;;;15.80;67.50;;;;;;5044314;28;43922;-71
2024/01/09 09:39:31;;;;;;;3.00;2.90;;;15.80;67.40;;;;;;5041139;28;43468;-71
2024/01/09 09:41:59;;;;;;;3.20;3.00;;;15.70;67.40;;;;;;5039618;28;43449;-71
2024/01/09 09:44:28;;;;;;;3.00;2.90;;;15.70;67.60;;;;;;5043537;28;44057;-71
2024/01/09 09:46:56;;;;;;;3.00;2.90;;;15.70;67.70;;;;;;5037446;28;43617;-72
2024/01/09 09:49:24;;;;;;;3.00;2.90;;;15.70;67.70;;;;;;5031113;28;45112;-78
2024/01/09 09:51:53;;;;;;;3.10;3.00;;;15.70;67.70;;;;;;5041622;28;43997;-71
2024/01/09 09:54:23;;;;;;;2.97;2.97;;;15.60;67.70;;;;;;5038679;28;43610;-71
2024/01/09 09:56:52;;;;;;;3.17;3.13;;;15.60;67.80;;;;;;5042050;28;43687;-71
2024/01/09 09:59:20;;;;;;;2.87;2.87;;;15.60;67.90;;;;;;5033127;28;43440;-71
2024/01/09 10:01:48;;;;;;;3.47;3.37;;;15.60;67.90;;;;;;5035848;28;44035;-71
2024/01/09 10:04:26;;;;;;;3.30;3.20;;;15.60;68.00;;;;;;5043561;28;43547;-71
2024/01/09 10:06:55;;;;;;;3.40;3.30;;;15.60;68.00;;;;;;5028395;28;43767;-71
2024/01/09 10:09:28;;;;;;;2.93;2.83;;;15.60;68.00;;;;;;5048936;28;44198;-71
2024/01/09 10:11:57;;;;;;;3.07;2.97;;;15.60;68.00;;;;;;5045078;28;43448;-71
2024/01/09 10:14:25;;;;;;;3.43;3.33;;;15.60;68.10;;;;;;5037408;28;43511;-71
2024/01/09 10:16:54;;;;;;;3.30;3.20;;;15.50;68.00;;;;;;5037169;28;43973;-71
2024/01/09 10:19:22;;;;;;;2.97;2.87;;;15.50;68.80;;;;;;5053989;28;43373;-71
2024/01/09 10:21:50;;;;;;;3.03;2.93;;;15.50;68.30;;;;;;5054883;28;43457;-70
2024/01/09 10:24:18;;;;;;;2.67;2.67;;;15.60;68.30;;;;;;5052284;28;44583;-71
2024/01/09 10:26:47;;;;;;;3.00;2.90;;;15.60;67.70;;;;;;5067501;28;43583;-70
2024/01/09 10:29:15;;;;;;;3.10;3.00;;;15.70;67.50;;;;;;5046037;28;44035;-71
2024/01/09 10:31:44;;;;;;;3.17;3.00;;;15.70;67.70;;;;;;5033642;28;43415;-71
2024/01/09 10:34:12;;;;;;;3.50;3.20;;;15.70;67.60;;;;;;5042035;28;43359;-71
2024/01/09 10:36:40;;;;;;;3.43;3.30;;;15.60;67.50;;;;;;5030763;28;46350;-71
2024/01/09 10:39:09;;;;;;;3.17;3.07;;;15.60;67.60;;;;;;5043104;28;43434;-71
2024/01/09 10:41:37;;;;;;;3.23;3.13;;;15.60;67.80;;;;;;5030838;28;43546;-71
2024/01/09 10:44:07;;;;;;;3.20;3.10;;;15.60;67.70;;;;;;5050714;28;43502;-71
2024/01/09 10:46:36;;;;;;;3.17;3.07;;;15.60;67.80;;;;;;5032738;28;43894;-70
2024/01/09 10:49:04;;;;;;;3.10;3.00;;;15.60;67.90;;;;;;5029218;28;44287;-70
2024/01/09 10:51:33;;;;;;;3.37;3.27;;;15.60;67.90;;;;;;5036285;28;43730;-70
2024/01/09 10:54:01;;;;;;;2.93;2.93;;;15.60;67.90;;;;;;5041780;28;43408;-75
2024/01/09 10:56:29;;;;;;;2.77;2.60;;;15.60;68.00;;;;;;5030768;28;43934;-71
2024/01/09 10:58:57;;;;;;;3.10;3.00;;;15.60;68.70;;;;;;5027708;28;43491;-71
2024/01/09 11:01:27;;;;;;;2.70;2.60;;;15.60;68.00;;;;;;5030644;28;43427;-71
2024/01/09 11:03:55;;;;;;;3.20;3.10;;;15.60;68.10;;;;;;5036826;28;43882;-71
2024/01/09 11:06:23;;;;;;;3.47;3.27;;;15.60;67.90;;;;;;5035840;28;43945;-70
2024/01/09 11:08:55;;;;;;;3.20;3.10;;;15.50;67.80;;;;;;5035381;28;43968;-70
2024/01/09 11:11:23;;;;;;;2.80;2.80;;;15.50;67.90;;;;;;5036339;28;43458;-71
2024/01/09 11:13:52;;;;;;;3.20;3.10;;;15.50;68.00;;;;;;5044636;28;43462;-71
2024/01/09 11:16:20;;;;;;;3.00;2.90;;;15.60;68.20;;;;;;5037415;28;43865;-71
2024/01/09 11:18:50;;;;;;;3.10;3.00;;;15.60;67.50;;;;;;5037898;28;43372;-71
2024/01/09 11:21:18;;;;;;;3.37;3.27;;;15.70;67.50;;;;;;5039200;28;43392;-71
2024/01/09 11:24:00;;;;;;;3.07;2.97;;;15.70;67.50;;;;;;5046706;28;43574;-71
2024/01/09 11:26:29;;;;;;;3.00;2.90;;;15.70;67.60;;;;;;5042220;28;43602;-71
2024/01/09 11:28:59;;;;;;;3.67;3.50;;;15.60;67.60;;;;;;5037479;28;43940;-72
2024/01/09 11:31:29;;;;;;;3.17;3.07;;;15.60;67.70;;;;;;5034099;28;43857;-71
2024/01/09 11:34:01;;;;;;;3.07;2.97;;;15.60;67.70;;;;;;5038521;28;43438;-71
2024/01/09 11:36:33;;;;;;;3.23;3.13;;;15.60;67.80;;;;;;5043445;28;43969;-71
2024/01/09 11:39:01;;;;;;;2.83;2.83;;;15.60;67.90;;;;;;5034717;28;43498;-71
2024/01/09 11:41:33;;;;;;;2.97;2.77;;;15.60;67.90;;;;;;5032535;28;43390;-71
2024/01/09 11:44:02;;;;;;;3.10;3.00;;;15.60;67.90;;;;;;5036876;28;43572;-71
2024/01/09 11:46:32;;;;;;;3.23;3.13;;;15.60;67.90;;;;;;5031224;28;43624;-72
2024/01/09 11:49:01;;;;;;;3.20;3.10;;;15.60;67.90;;;;;;5044314;28;43424;-72
2024/01/09 11:51:30;;;;;;;3.30;3.20;;;15.60;68.00;;;;;;5038982;28;43483;-72
2024/01/09 11:53:59;;;;;;;3.60;3.40;;;15.60;68.10;;;;;;5043168;28;43451;-72
2024/01/09 11:56:27;;;;;;;3.57;3.47;;;15.60;68.00;;;;;;5042579;28;43627;-70
2024/01/09 11:58:57;;;;;;;3.10;3.00;;;15.50;67.90;;;;;;5042706;28;44117;-71
2024/01/09 12:01:25;;;;;;;3.10;3.00;;;15.60;68.10;;;;;;5048153;28;44165;-71
2024/01/09 12:03:53;;;;;;;3.10;3.00;;;15.60;68.10;;;;;;5049631;28;43493;-71
2024/01/09 12:06:23;;;;;;;3.13;3.10;;;15.50;67.90;;;;;;5048731;28;44241;-71
2024/01/09 12:08:52;;;;;;;3.27;3.00;;;15.60;68.10;;;;;;5044941;28;43496;-72
2024/01/09 12:11:20;;;;;;;3.10;3.00;;;15.60;68.00;;;;;;5035025;28;43372;-71
2024/01/09 12:13:48;;;;;;;2.90;2.80;;;15.70;67.50;;;;;;5040139;28;43989;-71
2024/01/09 12:16:21;;;;;;;3.20;3.10;;;15.80;67.30;;;;;;5030846;28;46015;-71
2024/01/09 12:18:50;;;;;;;3.23;3.13;;;15.70;67.20;;;;;;5043095;28;43470;-71
2024/01/09 12:21:19;;;;;;;3.20;3.10;;;15.70;67.40;;;;;;5047722;28;44340;-71
2024/01/09 12:23:48;;;;;;;3.23;3.13;;;15.70;67.40;;;;;;5042505;28;43533;-71
2024/01/09 12:26:37;;;;;;;3.33;3.23;;;15.70;67.40;;;;;;5040371;28;43725;-71
2024/01/09 12:29:05;;;;;;;3.43;3.33;;;15.70;67.60;;;;;;5035600;28;44580;-71
2024/01/09 12:35:42;;;;;;;3.30;3.20;;;15.60;67.60;;;;;;5034542;28;43451;-70
2024/01/09 12:38:11;;;;;;;3.83;3.40;;;15.60;67.70;;;;;;5032731;28;45495;-71
2024/01/09 12:40:40;;;;;;;4.07;3.70;;;15.60;67.90;;;;;;5038638;28;43427;-72
2024/01/09 12:43:09;;;;;;;6.73;4.60;;;15.60;67.80;;;;;;5044354;28;43956;-71
2024/01/09 12:45:39;;;;;;;4.40;4.00;;;15.50;67.70;;;;;;5041630;28;43448;-71
2024/01/09 12:48:09;;;;;;;4.80;4.10;;;15.60;67.80;;;;;;5042709;28;45140;-72
2024/01/09 12:50:37;;;;;;;8.10;4.87;;;15.60;67.90;;;;;;5044035;28;43592;-72
2024/01/09 12:53:05;;;;;;;7.80;4.90;;;15.60;67.90;;;;;;5044327;28;44088;-72
2024/01/09 12:55:33;;;;;;;7.70;5.10;;;15.60;67.90;;;;;;5044530;28;43432;-72
2024/01/09 12:58:03;;;;;;;10.30;5.40;;;15.50;67.90;;;;;;5030211;28;45686;-71
2024/01/09 13:00:31;;;;;;;11.03;5.77;;;15.50;67.90;;;;;;5045301;28;43802;-72